sensor_id;sensor_type;location;lat;lon;timestamp;pressure;altitude;pressure_sealevel;temperature;humidity
5879;BME280;2965;42.640;23.370;2022-11-12T05:02:14;95773.00;;;7.51;100.00
5879;BME280;2965;42.640;23.370;2022-11-12T05:04:40;95773.44;;;7.56;100.00
5879;BME280;2965;42.640;23.370;2022-11-12T05:07:06;95777.00;;;7.65;100.00
5879;BME280;2965;42.640;23.370;2022-11-12T05:09:31;95784.41;;;7.59;100.00
5879;BME280;2965;42.640;23.370;2022-11-12T05:11:57;95783.34;;;7.62;100.00
5879;BME280;2965;42.640;23.370;2022-11-12T05:14:23;95793.75;;;7.72;100.00
5879;BME280;2965;42.640;23.370;2022-11-12T05:16:50;95791.56;;;7.67;100.00
5879;BME280;2965;42.640;23.370;2022-11-12T05:19:15;95788.69;;;7.70;100.00
5879;BME280;2965;42.640;23.370;2022-11-12T05:21:41;95786.75;;;7.63;100.00
5879;BME280;2965;42.640;23.370;2022-11-12T05:24:25;95805.97;;;7.71;100.00
5879;BME280;2965;42.640;23.370;2022-11-12T05:26:51;95797.44;;;7.69;100.00
5879;BME280;2965;42.640;23.370;2022-11-12T05:29:17;95809.91;;;7.66;100.00
5879;BME280;2965;42.640;23.370;2022-11-12T05:31:42;95799.53;;;7.75;100.00
5879;BME280;2965;42.640;23.370;2022-11-12T05:34:08;95799.78;;;7.72;100.00
5879;BME280;2965;42.640;23.370;2022-11-12T05:36:33;95796.78;;;7.67;100.00
5879;BME280;2965;42.640;23.370;2022-11-12T05:38:59;95807.19;;;7.67;100.00
5879;BME280;2965;42.640;23.370;2022-11-12T05:41:24;95804.44;;;7.69;100.00
5879;BME280;2965;42.640;23.370;2022-11-12T05:43:50;95803.63;;;7.78;100.00
5879;BME280;2965;42.640;23.370;2022-11-12T05:46:16;95808.19;;;7.86;100.00
5879;BME280;2965;42.640;23.370;2022-11-12T05:48:41;95803.13;;;7.94;100.00
5879;BME280;2965;42.640;23.370;2022-11-12T05:51:07;95797.34;;;8.00;100.00
5879;BME280;2965;42.640;23.370;2022-11-12T05:53:32;95805.88;;;8.02;100.00
5879;BME280;2965;42.640;23.370;2022-11-12T05:56:01;95808.88;;;7.97;100.00
5879;BME280;2965;42.640;23.370;2022-11-12T05:58:27;95803.13;;;7.94;100.00
5879;BME280;2965;42.640;23.370;2022-11-12T06:00:52;95814.91;;;8.07;100.00
5879;BME280;2965;42.640;23.370;2022-11-12T06:03:18;95817.38;;;8.09;100.00
5879;BME280;2965;42.640;23.370;2022-11-12T06:05:43;95815.19;;;8.14;100.00
5879;BME280;2965;42.640;23.370;2022-11-12T06:08:09;95822.63;;;8.28;100.00
5879;BME280;2965;42.640;23.370;2022-11-12T06:10:34;95822.72;;;8.27;100.00
5879;BME280;2965;42.640;23.370;2022-11-12T06:13:00;95819.03;;;8.29;100.00
5879;BME280;2965;42.640;23.370;2022-11-12T06:15:25;95817.94;;;8.03;100.00
5879;BME280;2965;42.640;23.370;2022-11-12T06:17:54;95827.53;;;7.93;100.00
5879;BME280;2965;42.640;23.370;2022-11-12T06:20:21;95830.56;;;8.17;100.00
5879;BME280;2965;42.640;23.370;2022-11-12T06:22:47;95831.78;;;8.23;100.00
5879;BME280;2965;42.640;23.370;2022-11-12T06:25:12;95826.09;;;9.05;100.00
5879;BME280;2965;42.640;23.370;2022-11-12T06:27:38;95797.00;;;10.98;100.00
5879;BME280;2965;42.640;23.370;2022-11-12T06:30:04;95802.50;;;10.43;100.00
5879;BME280;2965;42.640;23.370;2022-11-12T06:32:30;95808.88;;;9.95;100.00
5879;BME280;2965;42.640;23.370;2022-11-12T06:34:55;95821.38;;;9.18;100.00
5879;BME280;2965;42.640;23.370;2022-11-12T06:37:21;95823.94;;;8.91;100.00
5879;BME280;2965;42.640;23.370;2022-11-12T06:39:47;95827.22;;;8.93;100.00
5879;BME280;2965;42.640;23.370;2022-11-12T06:42:13;95835.75;;;8.85;100.00
5879;BME280;2965;42.640;23.370;2022-11-12T06:44:38;95841.13;;;8.83;100.00
5879;BME280;2965;42.640;23.370;2022-11-12T06:47:04;95843.06;;;8.81;100.00
5879;BME280;2965;42.640;23.370;2022-11-12T06:49:29;95848.81;;;8.75;100.00
5879;BME280;2965;42.640;23.370;2022-11-12T06:51:54;95847.19;;;8.65;100.00
5879;BME280;2965;42.640;23.370;2022-11-12T06:54:20;95851.72;;;8.72;100.00
5879;BME280;2965;42.640;23.370;2022-11-12T06:56:45;95848.41;;;8.70;100.00
5879;BME280;2965;42.640;23.370;2022-11-12T06:59:10;95842.00;;;8.55;100.00
5879;BME280;2965;42.640;23.370;2022-11-12T07:01:36;95839.09;;;8.58;100.00
5879;BME280;2965;42.640;23.370;2022-11-12T07:04:01;95840.75;;;8.59;100.00
5879;BME280;2965;42.640;23.370;2022-11-12T07:06:27;95836.59;;;8.66;100.00
5879;BME280;2965;42.640;23.370;2022-11-12T07:08:52;95833.28;;;8.83;100.00
5879;BME280;2965;42.640;23.370;2022-11-12T07:11:18;95832.16;;;8.96;100.00
5879;BME280;2965;42.640;23.370;2022-11-12T07:13:45;95831.31;;;9.05;100.00
5879;BME280;2965;42.640;23.370;2022-11-12T07:16:12;95828.72;;;9.05;100.00
5879;BME280;2965;42.640;23.370;2022-11-12T07:18:38;95836.78;;;9.21;100.00
5879;BME280;2965;42.640;23.370;2022-11-12T07:21:12;95832.66;;;9.19;100.00
5879;BME280;2965;42.640;23.370;2022-11-12T07:23:38;95834.91;;;9.04;100.00
5879;BME280;2965;42.640;23.370;2022-11-12T07:26:06;95838.44;;;9.03;100.00
5879;BME280;2965;42.640;23.370;2022-11-12T07:28:32;95840.88;;;9.24;100.00
5879;BME280;2965;42.640;23.370;2022-11-12T07:31:00;95838.88;;;9.45;100.00
5879;BME280;2965;42.640;23.370;2022-11-12T07:33:27;95846.00;;;9.53;100.00
5879;BME280;2965;42.640;23.370;2022-11-12T07:36:00;95842.06;;;9.67;100.00
5879;BME280;2965;42.640;23.370;2022-11-12T07:38:28;95843.47;;;9.89;100.00
5879;BME280;2965;42.640;23.370;2022-11-12T07:41:07;95835.28;;;10.01;100.00
5879;BME280;2965;42.640;23.370;2022-11-12T07:43:34;95850.72;;;9.95;100.00
5879;BME280;2965;42.640;23.370;2022-11-12T07:46:03;95839.25;;;9.78;100.00
5879;BME280;2965;42.640;23.370;2022-11-12T07:48:30;95839.03;;;9.71;100.00
5879;BME280;2965;42.640;23.370;2022-11-12T07:51:07;95838.63;;;9.94;100.00
5879;BME280;2965;42.640;23.370;2022-11-12T07:53:35;95840.56;;;9.92;100.00
5879;BME280;2965;42.640;23.370;2022-11-12T07:56:01;95844.22;;;9.99;100.00
5879;BME280;2965;42.640;23.370;2022-11-12T07:58:30;95845.31;;;9.78;100.00
5879;BME280;2965;42.640;23.370;2022-11-12T08:00:56;95849.47;;;9.71;100.00
5879;BME280;2965;42.640;23.370;2022-11-12T08:03:21;95847.84;;;9.70;100.00
5879;BME280;2965;42.640;23.370;2022-11-12T08:05:47;95847.44;;;9.65;100.00
5879;BME280;2965;42.640;23.370;2022-11-12T08:08:13;95851.97;;;9.63;100.00
5879;BME280;2965;42.640;23.370;2022-11-12T08:10:38;95854.75;;;9.62;100.00
5879;BME280;2965;42.640;23.370;2022-11-12T08:13:04;95847.03;;;9.60;100.00
5879;BME280;2965;42.640;23.370;2022-11-12T08:15:30;95857.22;;;9.63;100.00
5879;BME280;2965;42.640;23.370;2022-11-12T08:17:55;95855.78;;;9.69;100.00
5879;BME280;2965;42.640;23.370;2022-11-12T08:20:21;95864.88;;;9.74;100.00
5879;BME280;2965;42.640;23.370;2022-11-12T08:22:47;95870.09;;;9.74;100.00
5879;BME280;2965;42.640;23.370;2022-11-12T08:25:13;95863.19;;;9.73;100.00
5879;BME280;2965;42.640;23.370;2022-11-12T08:27:38;95856.94;;;9.66;100.00
5879;BME280;2965;42.640;23.370;2022-11-12T08:30:04;95860.41;;;9.57;100.00
5879;BME280;2965;42.640;23.370;2022-11-12T08:32:30;95860.63;;;9.64;100.00
5879;BME280;2965;42.640;23.370;2022-11-12T08:34:55;95868.75;;;9.70;100.00
5879;BME280;2965;42.640;23.370;2022-11-12T08:37:21;95867.06;;;9.69;100.00
5879;BME280;2965;42.640;23.370;2022-11-12T08:39:46;95873.69;;;9.64;100.00
5879;BME280;2965;42.640;23.370;2022-11-12T08:42:11;95870.38;;;9.71;100.00
5879;BME280;2965;42.640;23.370;2022-11-12T08:44:37;95864.56;;;9.77;100.00
5879;BME280;2965;42.640;23.370;2022-11-12T08:47:02;95865.38;;;9.78;100.00
5879;BME280;2965;42.640;23.370;2022-11-12T08:49:28;95869.00;;;9.67;100.00
5879;BME280;2965;42.640;23.370;2022-11-12T08:51:54;95869.78;;;9.77;100.00
5879;BME280;2965;42.640;23.370;2022-11-12T09:21:05;95859.31;;;10.32;100.00
5879;BME280;2965;42.640;23.370;2022-11-12T09:23:33;95859.59;;;10.29;100.00
5879;BME280;2965;42.640;23.370;2022-11-12T09:25:59;95859.84;;;10.36;100.00
5879;BME280;2965;42.640;23.370;2022-11-12T09:28:24;95866.19;;;10.33;100.00
5879;BME280;2965;42.640;23.370;2022-11-12T09:30:51;95866.78;;;10.27;100.00
5879;BME280;2965;42.640;23.370;2022-11-12T09:33:22;95866.78;;;10.27;100.00
5879;BME280;2965;42.640;23.370;2022-11-12T09:35:49;95865.13;;;10.26;100.00
5879;BME280;2965;42.640;23.370;2022-11-12T09:38:15;95858.81;;;10.19;100.00
5879;BME280;2965;42.640;23.370;2022-11-12T09:40:54;95853.59;;;10.19;100.00
5879;BME280;2965;42.640;23.370;2022-11-12T09:43:29;95859.19;;;10.06;100.00
5879;BME280;2965;42.640;23.370;2022-11-12T09:46:01;95869.63;;;10.06;100.00
5879;BME280;2965;42.640;23.370;2022-11-12T09:48:37;95861.94;;;10.05;100.00
5879;BME280;2965;42.640;23.370;2022-11-12T09:51:11;95853.13;;;10.06;100.00
5879;BME280;2965;42.640;23.370;2022-11-12T09:53:43;95858.28;;;10.16;100.00
5879;BME280;2965;42.640;23.370;2022-11-12T09:56:12;95862.66;;;10.25;100.00
5879;BME280;2965;42.640;23.370;2022-11-12T09:58:37;95861.84;;;10.24;100.00
5879;BME280;2965;42.640;23.370;2022-11-12T10:06:54;95866.19;;;10.33;100.00
5879;BME280;2965;42.640;23.370;2022-11-12T10:09:24;95869.16;;;10.39;100.00
5879;BME280;2965;42.640;23.370;2022-11-12T10:14:55;95865.06;;;10.54;100.00
5879;BME280;2965;42.640;23.370;2022-11-12T10:17:52;95864.81;;;10.65;100.00
5879;BME280;2965;42.640;23.370;2022-11-12T10:20:42;95854.66;;;10.62;100.00
5879;BME280;2965;42.640;23.370;2022-11-12T10:23:23;95861.31;;;10.56;100.00
5879;BME280;2965;42.640;23.370;2022-11-12T10:25:52;95858.94;;;10.63;100.00
5879;BME280;2965;42.640;23.370;2022-11-12T10:30:52;95859.97;;;10.52;100.00
5879;BME280;2965;42.640;23.370;2022-11-12T10:33:20;95856.09;;;10.56;100.00
5879;BME280;2965;42.640;23.370;2022-11-12T10:35:45;95857.94;;;10.64;100.00
5879;BME280;2965;42.640;23.370;2022-11-12T10:38:14;95853.53;;;10.65;100.00
5879;BME280;2965;42.640;23.370;2022-11-12T10:40:42;95861.84;;;10.60;100.00
5879;BME280;2965;42.640;23.370;2022-11-12T10:45:39;95860.66;;;10.54;100.00
5879;BME280;2965;42.640;23.370;2022-11-12T10:48:20;95861.09;;;10.50;100.00
5879;BME280;2965;42.640;23.370;2022-11-12T10:50:46;95866.03;;;10.53;100.00
5879;BME280;2965;42.640;23.370;2022-11-12T10:53:11;95862.38;;;10.64;100.00
5879;BME280;2965;42.640;23.370;2022-11-12T10:55:54;95853.16;;;10.77;100.00
5879;BME280;2965;42.640;23.370;2022-11-12T10:58:20;95852.47;;;10.75;100.00
5879;BME280;2965;42.640;23.370;2022-11-12T11:03:24;95858.94;;;10.63;100.00
5879;BME280;2965;42.640;23.370;2022-11-12T11:06:04;95854.16;;;10.58;100.00
5879;BME280;2965;42.640;23.370;2022-11-12T11:08:37;95860.50;;;10.56;100.00
5879;BME280;2965;42.640;23.370;2022-11-12T11:13:41;95852.56;;;10.48;100.00
5879;BME280;2965;42.640;23.370;2022-11-12T11:16:11;95849.50;;;10.34;100.00
5879;BME280;2965;42.640;23.370;2022-11-12T11:18:37;95840.63;;;10.27;100.00
5879;BME280;2965;42.640;23.370;2022-11-12T11:37:24;95848.19;;;10.21;100.00
5879;BME280;2965;42.640;23.370;2022-11-12T11:57:54;95842.56;;;10.25;100.00
5879;BME280;2965;42.640;23.370;2022-11-12T12:00:24;95839.41;;;10.40;100.00
5879;BME280;2965;42.640;23.370;2022-11-12T12:06:05;95842.03;;;10.40;100.00
5879;BME280;2965;42.640;23.370;2022-11-12T12:11:30;95837.78;;;10.39;100.00
5879;BME280;2965;42.640;23.370;2022-11-12T12:14:27;95829.63;;;10.42;100.00
5879;BME280;2965;42.640;23.370;2022-11-12T12:17:23;95824.47;;;10.50;100.00
5879;BME280;2965;42.640;23.370;2022-11-12T12:22:37;95831.34;;;10.51;100.00
5879;BME280;2965;42.640;23.370;2022-11-12T12:25:34;95831.88;;;10.54;100.00
5879;BME280;2965;42.640;23.370;2022-11-12T12:28:12;95820.41;;;10.73;100.00
5879;BME280;2965;42.640;23.370;2022-11-12T12:30:44;95822.28;;;10.81;100.00
5879;BME280;2965;42.640;23.370;2022-11-12T12:33:18;95833.97;;;10.95;100.00
5879;BME280;2965;42.640;23.370;2022-11-12T12:35:53;95828.00;;;10.84;100.00
5879;BME280;2965;42.640;23.370;2022-11-12T12:38:34;95828.41;;;10.98;100.00
5879;BME280;2965;42.640;23.370;2022-11-12T12:43:51;95823.91;;;11.08;100.00
5879;BME280;2965;42.640;23.370;2022-11-12T12:46:22;95843.63;;;11.20;100.00
5879;BME280;2965;42.640;23.370;2022-11-12T12:51:29;95830.91;;;10.99;100.00
5879;BME280;2965;42.640;23.370;2022-11-12T12:53:56;95829.25;;;10.72;100.00
5879;BME280;2965;42.640;23.370;2022-11-12T12:58:47;95836.19;;;10.64;100.00
5879;BME280;2965;42.640;23.370;2022-11-12T13:01:27;95817.78;;;10.73;100.00
5879;BME280;2965;42.640;23.370;2022-11-12T13:04:01;95824.53;;;10.76;100.00
5879;BME280;2965;42.640;23.370;2022-11-12T13:09:04;95828.88;;;10.67;100.00
5879;BME280;2965;42.640;23.370;2022-11-12T13:19:33;95836.06;;;10.29;100.00
5879;BME280;2965;42.640;23.370;2022-11-12T13:40:50;95845.00;;;9.54;100.00
5879;BME280;2965;42.640;23.370;2022-11-12T13:54:33;95842.00;;;9.21;100.00
5879;BME280;2965;42.640;23.370;2022-11-12T14:00:19;95833.75;;;9.16;100.00
5879;BME280;2965;42.640;23.370;2022-11-12T14:02:52;95831.88;;;9.08;100.00
5879;BME280;2965;42.640;23.370;2022-11-12T14:05:21;95828.97;;;9.02;100.00
5879;BME280;2965;42.640;23.370;2022-11-12T14:11:03;95832.97;;;9.06;100.00
5879;BME280;2965;42.640;23.370;2022-11-12T14:19:07;95834.91;;;9.04;100.00
5879;BME280;2965;42.640;23.370;2022-11-12T14:21:38;95827.75;;;9.06;100.00
5879;BME280;2965;42.640;23.370;2022-11-12T14:24:04;95822.84;;;8.83;100.00
5879;BME280;2965;42.640;23.370;2022-11-12T14:26:41;95827.66;;;8.88;100.00
5879;BME280;2965;42.640;23.370;2022-11-12T14:29:12;95825.31;;;8.85;100.00
5879;BME280;2965;42.640;23.370;2022-11-12T14:31:40;95829.28;;;8.89;100.00
5879;BME280;2965;42.640;23.370;2022-11-12T14:34:19;95834.38;;;8.91;100.00
5879;BME280;2965;42.640;23.370;2022-11-12T14:36:45;95837.38;;;8.96;100.00
5879;BME280;2965;42.640;23.370;2022-11-12T14:39:11;95834.50;;;8.99;100.00
5879;BME280;2965;42.640;23.370;2022-11-12T14:41:37;95837.63;;;9.02;100.00
5879;BME280;2965;42.640;23.370;2022-11-12T14:44:13;95836.53;;;9.05;100.00
5879;BME280;2965;42.640;23.370;2022-11-12T14:46:46;95832.16;;;8.96;100.00
5879;BME280;2965;42.640;23.370;2022-11-12T14:49:24;95826.25;;;8.94;100.00
5879;BME280;2965;42.640;23.370;2022-11-12T14:51:56;95819.16;;;8.86;100.00
5879;BME280;2965;42.640;23.370;2022-11-12T14:54:35;95829.44;;;8.88;100.00
5879;BME280;2965;42.640;23.370;2022-11-12T14:57:04;95828.19;;;8.92;100.00
5879;BME280;2965;42.640;23.370;2022-11-12T14:59:31;95832.41;;;9.02;100.00
5879;BME280;2965;42.640;23.370;2022-11-12T15:02:07;95838.31;;;9.04;100.00
5879;BME280;2965;42.640;23.370;2022-11-12T15:04:40;95833.53;;;9.00;100.00
5879;BME280;2965;42.640;23.370;2022-11-12T15:07:20;95834.38;;;8.91;100.00
5879;BME280;2965;42.640;23.370;2022-11-12T15:09:47;95825.59;;;8.92;100.00
5879;BME280;2965;42.640;23.370;2022-11-12T15:12:19;95828.63;;;8.87;100.00
5879;BME280;2965;42.640;23.370;2022-11-12T15:14:46;95828.34;;;8.80;100.00
5879;BME280;2965;42.640;23.370;2022-11-12T15:17:41;95830.00;;;8.81;100.00
5879;BME280;2965;42.640;23.370;2022-11-12T15:20:14;95829.16;;;8.91;100.00
5879;BME280;2965;42.640;23.370;2022-11-12T15:22:40;95828.88;;;8.94;100.00
5879;BME280;2965;42.640;23.370;2022-11-12T15:25:24;95830.06;;;9.09;100.00
5879;BME280;2965;42.640;23.370;2022-11-12T15:27:50;95819.25;;;9.04;100.00
5879;BME280;2965;42.640;23.370;2022-11-12T15:30:22;95829.91;;;9.10;100.00
5879;BME280;2965;42.640;23.370;2022-11-12T15:33:05;95828.09;;;9.21;100.00
5879;BME280;2965;42.640;23.370;2022-11-12T15:35:33;95834.25;;;9.29;100.00
5879;BME280;2965;42.640;23.370;2022-11-12T15:38:09;95830.38;;;9.33;100.00
5879;BME280;2965;42.640;23.370;2022-11-12T15:40:41;95833.66;;;9.45;100.00
5879;BME280;2965;42.640;23.370;2022-11-12T15:43:15;95841.31;;;9.47;100.00
5879;BME280;2965;42.640;23.370;2022-11-12T15:45:41;95837.78;;;9.48;100.00
5879;BME280;2965;42.640;23.370;2022-11-12T15:48:10;95836.69;;;9.41;100.00
5879;BME280;2965;42.640;23.370;2022-11-12T15:50:35;95839.97;;;9.43;100.00
5879;BME280;2965;42.640;23.370;2022-11-12T15:53:03;95843.59;;;9.32;100.00
5879;BME280;2965;42.640;23.370;2022-11-12T15:55:28;95840.63;;;9.17;100.00
5879;BME280;2965;42.640;23.370;2022-11-12T15:57:54;95846.72;;;9.08;100.00
5879;BME280;2965;42.640;23.370;2022-11-12T16:00:21;95844.38;;;9.05;100.00
5879;BME280;2965;42.640;23.370;2022-11-12T16:02:54;95845.50;;;8.93;100.00
5879;BME280;2965;42.640;23.370;2022-11-12T16:05:20;95851.53;;;8.93;100.00
5879;BME280;2965;42.640;23.370;2022-11-12T16:07:45;95858.81;;;8.90;100.00
5879;BME280;2965;42.640;23.370;2022-11-12T16:10:16;95855.50;;;8.97;100.00
5879;BME280;2965;42.640;23.370;2022-11-12T16:12:43;95852.78;;;8.99;100.00
5879;BME280;2965;42.640;23.370;2022-11-12T16:15:19;95853.84;;;9.06;100.00
5879;BME280;2965;42.640;23.370;2022-11-12T16:17:47;95859.34;;;9.13;100.00
5879;BME280;2965;42.640;23.370;2022-11-12T16:20:15;95856.56;;;9.14;100.00
5879;BME280;2965;42.640;23.370;2022-11-12T16:22:41;95856.44;;;9.06;100.00
5879;BME280;2965;42.640;23.370;2022-11-12T16:25:07;95852.47;;;9.02;100.00
5879;BME280;2965;42.640;23.370;2022-11-12T16:27:32;95845.06;;;8.97;100.00
5879;BME280;2965;42.640;23.370;2022-11-12T16:29:58;95839.03;;;8.97;100.00
5879;BME280;2965;42.640;23.370;2022-11-12T16:32:24;95845.88;;;8.98;100.00
5879;BME280;2965;42.640;23.370;2022-11-12T16:34:49;95838.44;;;9.03;100.00
5879;BME280;2965;42.640;23.370;2022-11-12T16:37:14;95846.59;;;9.00;100.00
5879;BME280;2965;42.640;23.370;2022-11-12T16:39:40;95842.03;;;9.02;100.00
5879;BME280;2965;42.640;23.370;2022-11-12T16:42:08;95846.16;;;9.04;100.00
5879;BME280;2965;42.640;23.370;2022-11-12T16:44:34;95850.97;;;9.09;100.00
5879;BME280;2965;42.640;23.370;2022-11-12T16:47:01;95846.72;;;9.08;100.00
5879;BME280;2965;42.640;23.370;2022-11-12T16:49:27;95843.41;;;9.06;100.00
5879;BME280;2965;42.640;23.370;2022-11-12T16:51:52;95841.47;;;8.98;100.00
5879;BME280;2965;42.640;23.370;2022-11-12T16:54:18;95833.81;;;8.97;100.00
5879;BME280;2965;42.640;23.370;2022-11-12T16:56:43;95842.88;;;8.93;100.00
5879;BME280;2965;42.640;23.370;2022-11-12T16:59:12;95835.16;;;9.01;100.00
5879;BME280;2965;42.640;23.370;2022-11-12T17:01:40;95833.81;;;8.97;100.00
5879;BME280;2965;42.640;23.370;2022-11-12T17:04:05;95835.16;;;9.01;100.00
5879;BME280;2965;42.640;23.370;2022-11-12T17:06:36;95843.41;;;9.06;100.00
5879;BME280;2965;42.640;23.370;2022-11-12T17:09:04;95841.75;;;9.05;100.00
5879;BME280;2965;42.640;23.370;2022-11-12T17:11:31;95848.06;;;9.12;100.00
5879;BME280;2965;42.640;23.370;2022-11-12T17:13:56;95847.50;;;9.18;100.00
5879;BME280;2965;42.640;23.370;2022-11-12T17:16:22;95848.16;;;9.20;100.00
5879;BME280;2965;42.640;23.370;2022-11-12T17:18:47;95846.91;;;9.24;100.00
5879;BME280;2965;42.640;23.370;2022-11-12T17:21:15;95851.91;;;9.18;100.00
5879;BME280;2965;42.640;23.370;2022-11-12T17:23:40;95852.59;;;9.10;100.00
5879;BME280;2965;42.640;23.370;2022-11-12T17:26:09;95851.09;;;9.07;100.00
5879;BME280;2965;42.640;23.370;2022-11-12T17:28:35;95855.19;;;9.10;100.00
5879;BME280;2965;42.640;23.370;2022-11-12T17:31:21;95846.41;;;9.11;100.00
5879;BME280;2965;42.640;23.370;2022-11-12T17:33:51;95850.81;;;9.10;100.00
5879;BME280;2965;42.640;23.370;2022-11-12T17:36:20;95853.09;;;9.23;100.00
5879;BME280;2965;42.640;23.370;2022-11-12T17:38:46;95848.59;;;9.25;100.00
5879;BME280;2965;42.640;23.370;2022-11-12T17:41:12;95857.91;;;9.28;100.00
5879;BME280;2965;42.640;23.370;2022-11-12T17:43:38;95846.91;;;9.24;100.00
5879;BME280;2965;42.640;23.370;2022-11-12T17:46:06;95838.19;;;9.06;100.00
5879;BME280;2965;42.640;23.370;2022-11-12T17:48:33;95842.28;;;9.18;100.00
5879;BME280;2965;42.640;23.370;2022-11-12T17:51:05;95844.59;;;9.21;100.00
5879;BME280;2965;42.640;23.370;2022-11-12T17:53:31;95845.53;;;9.20;100.00
5879;BME280;2965;42.640;23.370;2022-11-12T17:55:57;95843.34;;;9.25;100.00
5879;BME280;2965;42.640;23.370;2022-11-12T17:58:22;95845.00;;;9.26;100.00
5879;BME280;2965;42.640;23.370;2022-11-12T18:00:48;95850.44;;;9.33;100.00
5879;BME280;2965;42.640;23.370;2022-11-12T18:03:16;95846.53;;;9.19;100.00
5879;BME280;2965;42.640;23.370;2022-11-12T18:05:41;95843.88;;;9.29;100.00
5879;BME280;2965;42.640;23.370;2022-11-12T18:08:06;95854.56;;;9.35;100.00
5879;BME280;2965;42.640;23.370;2022-11-12T18:10:32;95854.00;;;9.42;100.00
5879;BME280;2965;42.640;23.370;2022-11-12T18:12:58;95862.69;;;9.32;100.00
5879;BME280;2965;42.640;23.370;2022-11-12T18:15:23;95859.84;;;9.16;100.00
5879;BME280;2965;42.640;23.370;2022-11-12T18:17:49;95859.06;;;9.06;100.00
5879;BME280;2965;42.640;23.370;2022-11-12T18:20:15;95870.31;;;9.06;100.00
5879;BME280;2965;42.640;23.370;2022-11-12T18:22:41;95863.31;;;9.07;100.00
5879;BME280;2965;42.640;23.370;2022-11-12T18:25:07;95864.56;;;9.03;100.00
5879;BME280;2965;42.640;23.370;2022-11-12T18:27:33;95861.66;;;9.06;100.00
5879;BME280;2965;42.640;23.370;2022-11-12T18:29:58;95871.44;;;9.04;100.00
5879;BME280;2965;42.640;23.370;2022-11-12T18:32:24;95865.66;;;9.10;100.00
5879;BME280;2965;42.640;23.370;2022-11-12T18:34:49;95861.50;;;9.17;100.00
5879;BME280;2965;42.640;23.370;2022-11-12T18:37:16;95863.44;;;9.15;100.00
5879;BME280;2965;42.640;23.370;2022-11-12T18:39:41;95873.31;;;9.21;100.00
5879;BME280;2965;42.640;23.370;2022-11-12T18:42:06;95870.59;;;9.13;100.00
5879;BME280;2965;42.640;23.370;2022-11-12T18:44:32;95870.88;;;9.10;100.00
5879;BME280;2965;42.640;23.370;2022-11-12T18:46:57;95865.66;;;9.10;100.00
5879;BME280;2965;42.640;23.370;2022-11-12T18:49:22;95874.16;;;9.12;100.00
5879;BME280;2965;42.640;23.370;2022-11-12T18:51:48;95872.47;;;9.21;100.00
5879;BME280;2965;42.640;23.370;2022-11-12T18:54:13;95869.16;;;9.28;100.00
5879;BME280;2965;42.640;23.370;2022-11-12T18:56:40;95878.91;;;9.36;100.00
5879;BME280;2965;42.640;23.370;2022-11-12T18:59:07;95867.75;;;9.34;100.00
5879;BME280;2965;42.640;23.370;2022-11-12T19:01:32;95857.91;;;9.28;100.00
5879;BME280;2965;42.640;23.370;2022-11-12T19:03:58;95865.47;;;9.31;100.00
5879;BME280;2965;42.640;23.370;2022-11-12T19:06:24;95867.38;;;9.29;100.00
5879;BME280;2965;42.640;23.370;2022-11-12T19:08:50;95871.09;;;9.26;100.00
5879;BME280;2965;42.640;23.370;2022-11-12T19:11:17;95866.75;;;9.17;100.00
5879;BME280;2965;42.640;23.370;2022-11-12T19:13:43;95871.84;;;9.09;100.00
5879;BME280;2965;42.640;23.370;2022-11-12T19:16:11;95877.44;;;9.14;100.00
5879;BME280;2965;42.640;23.370;2022-11-12T19:18:40;95878.28;;;9.15;100.00
5879;BME280;2965;42.640;23.370;2022-11-12T19:21:11;95879.41;;;9.12;100.00
5879;BME280;2965;42.640;23.370;2022-11-12T19:23:37;95875.81;;;9.13;100.00
5879;BME280;2965;42.640;23.370;2022-11-12T19:26:04;95866.47;;;9.10;100.00
5879;BME280;2965;42.640;23.370;2022-11-12T19:28:30;95875.81;;;9.13;100.00
5879;BME280;2965;42.640;23.370;2022-11-12T19:30:56;95875.13;;;9.11;100.00
5879;BME280;2965;42.640;23.370;2022-11-12T19:33:22;95869.78;;;9.13;100.00
5879;BME280;2965;42.640;23.370;2022-11-12T19:35:47;95875.25;;;9.19;100.00
5879;BME280;2965;42.640;23.370;2022-11-12T19:38:13;95873.31;;;9.12;100.00
5879;BME280;2965;42.640;23.370;2022-11-12T19:40:39;95886.53;;;9.10;100.00
5879;BME280;2965;42.640;23.370;2022-11-12T19:43:04;95886.81;;;9.07;100.00
5879;BME280;2965;42.640;23.370;2022-11-12T19:45:30;95892.84;;;9.17;100.00
5879;BME280;2965;42.640;23.370;2022-11-12T19:47:55;95889.00;;;9.21;100.00
5879;BME280;2965;42.640;23.370;2022-11-12T19:50:21;95904.06;;;9.27;100.00
5879;BME280;2965;42.640;23.370;2022-11-12T19:52:46;95898.59;;;9.30;100.00
5879;BME280;2965;42.640;23.370;2022-11-12T19:55:11;95892.63;;;9.75;100.00
5879;BME280;2965;42.640;23.370;2022-11-12T19:57:37;95902.31;;;9.65;100.00
5879;BME280;2965;42.640;23.370;2022-11-12T20:00:03;95890.00;;;9.48;100.00
5879;BME280;2965;42.640;23.370;2022-11-12T20:05:05;95888.66;;;9.44;100.00
5879;BME280;2965;42.640;23.370;2022-11-12T20:07:30;95884.78;;;9.38;100.00
5879;BME280;2965;42.640;23.370;2022-11-12T20:09:56;95888.97;;;9.31;100.00
5879;BME280;2965;42.640;23.370;2022-11-12T20:12:21;95890.63;;;9.22;100.00
5879;BME280;2965;42.640;23.370;2022-11-12T20:14:46;95890.06;;;9.28;100.00
5879;BME280;2965;42.640;23.370;2022-11-12T20:17:12;95898.31;;;9.24;100.00
5879;BME280;2965;42.640;23.370;2022-11-12T20:19:37;95900.25;;;9.22;100.00
5879;BME280;2965;42.640;23.370;2022-11-12T20:22:02;95891.84;;;9.28;100.00
5879;BME280;2965;42.640;23.370;2022-11-12T20:24:28;95900.50;;;9.28;100.00
5879;BME280;2965;42.640;23.370;2022-11-12T20:26:53;95890.34;;;9.25;100.00
5879;BME280;2965;42.640;23.370;2022-11-12T20:29:19;95890.47;;;9.24;100.00
5879;BME280;2965;42.640;23.370;2022-11-12T20:31:44;95892.97;;;9.25;100.00
5879;BME280;2965;42.640;23.370;2022-11-12T20:34:10;95894.03;;;9.32;100.00
5879;BME280;2965;42.640;23.370;2022-11-12T20:36:36;95897.22;;;9.26;100.00
5879;BME280;2965;42.640;23.370;2022-11-12T20:39:02;95895.84;;;9.22;100.00
5879;BME280;2965;42.640;23.370;2022-11-12T20:41:27;95898.31;;;9.24;100.00
5879;BME280;2965;42.640;23.370;2022-11-12T20:43:55;95902.13;;;9.29;100.00
5879;BME280;2965;42.640;23.370;2022-11-12T20:46:22;95898.84;;;9.27;100.00
5879;BME280;2965;42.640;23.370;2022-11-12T20:48:47;95891.69;;;9.29;100.00